Time;durP1;ratioP1;P1;durP2;ratioP2;P2;SDS_P1;SDS_P2;PMS_P1;PMS_P2;Temp;Humidity;BMP_temperature;BMP_pressure;BME280_temperature;BME280_humidity;BME280_pressure;Samples;Min_cycle;Max_cycle;Signal;HPM_P1;HPM_P2
2024/02/07 00:00:51;;;;;;;6.07;3.70;;;11.50;99.90;;;;;;5026476;28;20494;-70
2024/02/07 00:03:18;;;;;;;5.05;2.83;;;11.50;99.90;;;;;;5025405;28;20025;-69
2024/02/07 00:05:44;;;;;;;8.00;2.22;;;11.40;99.90;;;;;;5027828;28;20018;-68
2024/02/07 00:08:10;;;;;;;2.47;1.00;;;11.30;99.90;;;;;;5009781;28;20164;-71
2024/02/07 00:10:35;;;;;;;0.88;0.77;;;11.10;99.90;;;;;;5026880;28;20104;-71
2024/02/07 00:13:01;;;;;;;1.88;0.88;;;11.00;99.90;;;;;;5026236;28;20040;-68
2024/02/07 00:15:26;;;;;;;0.77;0.32;;;10.80;99.90;;;;;;5025263;28;20029;-71
2024/02/07 00:17:53;;;;;;;1.33;0.40;;;10.80;99.90;;;;;;5022917;28;20112;-70
2024/02/07 00:20:18;;;;;;;1.08;0.70;;;10.70;99.90;;;;;;5008155;28;20033;-68
2024/02/07 00:22:44;;;;;;;1.15;0.80;;;10.60;99.90;;;;;;5027663;28;20037;-70
2024/02/07 00:25:09;;;;;;;0.68;0.30;;;10.40;99.90;;;;;;5022836;28;20068;-71
2024/02/07 00:27:35;;;;;;;0.65;0.20;;;10.30;99.90;;;;;;5024249;28;20084;-70
2024/02/07 00:30:01;;;;;;;0.73;0.13;;;10.10;99.90;;;;;;5027454;28;20037;-71
2024/02/07 00:32:27;;;;;;;0.20;0.20;;;9.90;99.90;;;;;;5026912;28;20033;-70
2024/02/07 00:34:53;;;;;;;0.50;0.20;;;9.70;99.90;;;;;;5026640;28;20029;-69
2024/02/07 00:37:18;;;;;;;0.80;0.30;;;9.50;99.90;;;;;;5025553;28;20029;-67
2024/02/07 00:39:44;;;;;;;0.60;0.20;;;9.30;99.90;;;;;;5024973;28;20486;-68
2024/02/07 00:42:10;;;;;;;1.05;0.28;;;9.30;99.90;;;;;;5018270;28;20032;-71
2024/02/07 00:44:39;;;;;;;1.38;0.28;;;9.20;99.90;;;;;;5015493;28;20515;-69
2024/02/07 00:47:05;;;;;;;1.45;0.35;;;9.00;99.90;;;;;;5027294;28;20021;-70
2024/02/07 00:49:31;;;;;;;2.05;0.47;;;8.80;99.90;;;;;;5023546;28;20651;-72
2024/02/07 00:51:57;;;;;;;1.00;0.30;;;8.70;99.90;;;;;;5025725;28;20068;-69
2024/02/07 00:54:24;;;;;;;2.92;0.30;;;8.60;99.90;;;;;;5027746;28;20060;-69
2024/02/07 00:56:50;;;;;;;5.32;0.35;;;8.50;99.90;;;;;;5029436;28;20067;-71
2024/02/07 00:59:15;;;;;;;1.30;0.22;;;8.40;99.90;;;;;;5031460;28;20048;-70
2024/02/07 01:01:41;;;;;;;0.25;0.10;;;8.30;99.90;;;;;;5027819;28;20034;-68
2024/02/07 01:04:07;;;;;;;3.58;0.60;;;8.30;99.90;;;;;;5025840;28;20485;-71
2024/02/07 01:06:33;;;;;;;2.03;0.43;;;8.20;99.90;;;;;;5027539;28;20060;-69
2024/02/07 01:08:58;;;;;;;2.50;0.52;;;8.00;99.90;;;;;;5033785;28;20065;-68
2024/02/07 01:11:24;;;;;;;2.38;0.35;;;8.00;99.90;;;;;;5010100;28;20041;-67
2024/02/07 01:13:50;;;;;;;1.52;0.45;;;7.90;99.90;;;;;;5026517;28;20085;-68
2024/02/07 01:16:18;;;;;;;4.03;0.68;;;7.80;99.90;;;;;;5030355;28;20082;-71
2024/02/07 01:18:44;;;;;;;2.67;0.45;;;7.80;99.90;;;;;;5007114;28;19909;-67
2024/02/07 01:21:10;;;;;;;2.83;0.60;;;7.70;99.90;;;;;;5026814;28;20026;-69
2024/02/07 01:23:44;;;;;;;2.50;0.65;;;7.70;99.90;;;;;;5026413;28;20505;-68
2024/02/07 01:26:11;;;;;;;3.38;0.65;;;7.60;99.90;;;;;;5025985;28;20497;-68
2024/02/07 01:28:36;;;;;;;4.75;0.75;;;7.60;99.90;;;;;;5029566;28;20385;-69
2024/02/07 01:31:03;;;;;;;2.63;0.70;;;7.60;99.90;;;;;;5026258;28;19917;-69
2024/02/07 01:33:28;;;;;;;3.35;0.40;;;7.50;99.90;;;;;;5026192;28;20045;-67
2024/02/07 01:35:54;;;;;;;3.45;0.90;;;7.50;99.90;;;;;;5023127;28;20022;-68
2024/02/07 01:38:20;;;;;;;3.45;0.75;;;7.40;99.90;;;;;;5023862;28;20041;-68
2024/02/07 01:40:45;;;;;;;6.97;0.82;;;7.40;99.90;;;;;;5025929;28;20036;-70
2024/02/07 01:43:11;;;;;;;8.93;1.65;;;7.40;99.90;;;;;;5029321;28;20394;-67
2024/02/07 01:45:38;;;;;;;2.22;0.88;;;7.40;99.90;;;;;;5029421;28;20117;-69
2024/02/07 01:48:05;;;;;;;4.22;0.80;;;7.30;99.90;;;;;;5026631;28;20124;-70
2024/02/07 01:50:32;;;;;;;5.22;0.70;;;7.20;99.90;;;;;;5027051;28;20730;-71
2024/02/07 01:53:01;;;;;;;2.63;0.50;;;7.20;99.90;;;;;;5011082;28;20040;-68
2024/02/07 01:55:28;;;;;;;5.93;0.73;;;7.10;99.90;;;;;;5030869;28;20078;-70
2024/02/07 01:57:55;;;;;;;3.85;0.50;;;7.00;99.90;;;;;;5033949;28;20087;-70
2024/02/07 02:00:21;;;;;;;2.70;0.70;;;7.00;99.90;;;;;;5010323;28;20070;-68
2024/02/07 02:02:51;;;;;;;6.88;0.75;;;7.00;99.90;;;;;;5028491;28;20044;-68
2024/02/07 02:05:16;;;;;;;4.40;0.88;;;7.00;99.90;;;;;;5025021;28;20120;-68
2024/02/07 02:07:43;;;;;;;9.32;1.02;;;6.90;99.90;;;;;;5025441;28;20514;-74
2024/02/07 02:10:10;;;;;;;4.18;0.88;;;6.90;99.90;;;;;;5023918;28;20053;-68
2024/02/07 02:12:36;;;;;;;5.50;0.80;;;6.80;99.90;;;;;;5026526;28;20033;-69
2024/02/07 02:15:03;;;;;;;3.08;0.80;;;6.80;99.90;;;;;;5025503;28;20045;-68
2024/02/07 02:17:28;;;;;;;4.22;1.00;;;6.80;99.90;;;;;;5020837;28;20045;-67
2024/02/07 02:19:54;;;;;;;5.75;0.75;;;6.70;99.90;;;;;;5012624;28;20044;-68
2024/02/07 02:22:52;;;;;;;7.32;0.80;;;6.70;99.90;;;;;;5024956;28;20029;-66
2024/02/07 02:25:17;;;;;;;;;;;6.70;99.90;;;;;;5024348;28;20028;-69
2024/02/07 02:28:17;;;;;;;7.53;1.00;;;6.60;99.90;;;;;;5010218;28;19917;-67
2024/02/07 02:30:50;;;;;;;7.70;1.10;;;6.60;99.90;;;;;;5041547;28;20037;-70
2024/02/07 02:33:18;;;;;;;5.32;0.75;;;6.60;99.90;;;;;;5044727;28;20116;-69
2024/02/07 02:35:49;;;;;;;1.20;0.40;;;6.60;99.90;;;;;;5023677;28;20013;-68
2024/02/07 02:38:15;;;;;;;4.80;0.60;;;6.60;99.90;;;;;;5021421;28;20037;-73
2024/02/07 02:40:41;;;;;;;7.10;0.52;;;6.50;99.90;;;;;;5027015;28;20029;-67
2024/02/07 02:43:07;;;;;;;5.35;0.50;;;6.50;99.90;;;;;;5024316;28;20393;-69
2024/02/07 02:45:32;;;;;;;4.55;0.50;;;6.40;99.90;;;;;;5028414;28;20033;-68
2024/02/07 02:47:58;;;;;;;2.70;0.50;;;6.30;99.90;;;;;;5029330;28;20057;-70
2024/02/07 02:50:28;;;;;;;3.53;0.70;;;6.30;99.90;;;;;;5024139;28;20042;-69
2024/02/07 02:52:54;;;;;;;2.25;0.70;;;6.30;99.90;;;;;;5025276;28;20040;-70
2024/02/07 02:55:20;;;;;;;0.73;0.40;;;6.30;99.90;;;;;;5029691;28;20068;-70
2024/02/07 02:57:47;;;;;;;2.22;0.63;;;6.20;99.90;;;;;;5032343;28;20689;-72
2024/02/07 03:00:14;;;;;;;2.60;0.43;;;6.10;99.90;;;;;;5028587;28;20037;-71
2024/02/07 03:02:43;;;;;;;2.70;0.55;;;5.90;99.90;;;;;;5030441;28;20030;-68
2024/02/07 03:08:05;;;;;;;2.50;0.80;;;5.90;99.90;;;;;;5030649;28;20127;-68
2024/02/07 03:10:31;;;;;;;7.43;0.70;;;5.70;99.90;;;;;;5031477;28;20037;-69
2024/02/07 03:12:56;;;;;;;2.90;0.60;;;5.70;99.90;;;;;;5028055;28;20038;-73
2024/02/07 03:15:22;;;;;;;0.50;0.47;;;5.70;99.90;;;;;;5027446;28;20037;-70
2024/02/07 03:17:48;;;;;;;5.82;0.75;;;5.60;99.90;;;;;;5028191;28;20040;-71
2024/02/07 03:20:14;;;;;;;4.68;0.55;;;5.60;99.90;;;;;;5028855;28;20517;-68
2024/02/07 03:22:40;;;;;;;4.77;0.73;;;5.50;99.90;;;;;;5025780;28;20122;-72
2024/02/07 03:25:07;;;;;;;3.53;0.80;;;5.40;99.90;;;;;;5033584;28;20756;-68
2024/02/07 03:27:34;;;;;;;3.63;0.60;;;5.40;99.90;;;;;;5028982;28;20528;-71
2024/02/07 03:30:00;;;;;;;1.65;0.50;;;5.40;99.90;;;;;;5014967;28;20037;-68
2024/02/07 03:32:26;;;;;;;4.30;0.60;;;5.40;99.90;;;;;;5023404;28;20034;-69
2024/02/07 03:34:51;;;;;;;4.10;0.57;;;5.40;99.90;;;;;;5042147;28;20030;-70
2024/02/07 03:37:18;;;;;;;2.47;0.75;;;5.40;99.90;;;;;;5027831;28;20008;-68
2024/02/07 03:39:43;;;;;;;4.78;0.47;;;5.30;99.90;;;;;;5008230;28;20052;-68
2024/02/07 03:42:10;;;;;;;6.05;0.65;;;5.30;99.90;;;;;;5027832;28;20029;-71
2024/02/07 03:44:37;;;;;;;3.00;0.63;;;5.30;99.90;;;;;;5026900;28;20041;-70
2024/02/07 03:47:03;;;;;;;5.03;0.57;;;5.30;99.90;;;;;;5031991;28;20103;-69
2024/02/07 03:49:29;;;;;;;5.10;1.08;;;5.30;99.90;;;;;;5011173;28;20030;-70
2024/02/07 03:51:54;;;;;;;5.10;1.02;;;5.30;99.90;;;;;;5025956;28;20036;-71
2024/02/07 03:54:20;;;;;;;8.27;0.80;;;5.40;99.90;;;;;;5006884;28;20136;-68
2024/02/07 03:56:45;;;;;;;3.30;0.82;;;5.20;99.90;;;;;;5027958;28;20429;-70
2024/02/07 03:59:11;;;;;;;4.30;0.50;;;5.20;99.90;;;;;;5027883;28;20128;-69
2024/02/07 04:01:37;;;;;;;2.83;0.75;;;5.20;99.90;;;;;;5028392;28;20025;-72
2024/02/07 04:04:05;;;;;;;3.17;0.95;;;5.20;99.90;;;;;;5026244;28;20026;-71
2024/02/07 04:06:31;;;;;;;5.88;0.70;;;5.20;99.90;;;;;;5026169;28;20037;-72
2024/02/07 04:08:57;;;;;;;5.22;1.00;;;5.20;99.90;;;;;;5029212;28;20044;-73
2024/02/07 05:16:25;;;;;;;12.00;1.40;;;5.30;99.90;;;;;;5025345;28;20091;-70
2024/02/07 05:18:51;;;;;;;11.55;1.83;;;5.30;99.90;;;;;;5024990;28;20030;-72
2024/02/07 05:21:17;;;;;;;12.30;0.80;;;5.30;99.90;;;;;;5025577;28;20116;-68
2024/02/07 05:23:43;;;;;;;7.22;1.20;;;5.30;99.90;;;;;;5024755;28;20033;-72
2024/02/07 05:26:10;;;;;;;3.42;0.85;;;5.30;99.90;;;;;;5026183;28;20033;-68
2024/02/07 05:28:36;;;;;;;10.85;1.60;;;5.40;99.90;;;;;;5029307;28;20033;-70
2024/02/07 05:31:02;;;;;;;11.43;1.52;;;5.40;99.90;;;;;;5024800;28;21754;-72
2024/02/07 05:33:28;;;;;;;3.45;0.60;;;5.40;99.90;;;;;;5008256;28;20049;-71
2024/02/07 05:35:54;;;;;;;8.10;1.10;;;5.40;99.90;;;;;;5025490;28;20552;-70
2024/02/07 05:38:19;;;;;;;10.07;1.30;;;5.40;99.90;;;;;;5028234;28;20507;-71
2024/02/07 05:40:45;;;;;;;9.45;1.33;;;5.40;99.90;;;;;;5025000;28;20576;-70
2024/02/07 05:43:11;;;;;;;10.85;1.42;;;5.40;99.90;;;;;;5009211;28;20625;-70
2024/02/07 05:45:36;;;;;;;7.13;0.88;;;5.50;99.90;;;;;;5025590;28;20397;-72
2024/02/07 05:48:02;;;;;;;9.68;1.15;;;5.40;99.90;;;;;;5026067;28;20096;-69
2024/02/07 05:50:28;;;;;;;4.47;1.55;;;5.40;99.90;;;;;;5026174;28;20221;-71
2024/02/07 05:52:54;;;;;;;11.85;2.00;;;5.40;99.90;;;;;;5026970;28;20378;-67
2024/02/07 05:55:19;;;;;;;4.47;1.10;;;5.40;99.90;;;;;;5027928;28;20124;-68
2024/02/07 05:57:48;;;;;;;10.13;1.60;;;5.40;99.90;;;;;;5022978;28;20121;-71
2024/02/07 06:00:14;;;;;;;21.08;1.85;;;5.50;99.90;;;;;;5021151;28;20036;-68
2024/02/07 06:02:40;;;;;;;5.18;0.90;;;5.50;99.90;;;;;;5029159;28;20030;-70
2024/02/07 06:05:06;;;;;;;12.13;1.48;;;5.50;99.90;;;;;;5022237;28;20034;-69
2024/02/07 06:07:33;;;;;;;11.25;1.88;;;5.50;99.90;;;;;;5019780;28;20510;-70
2024/02/07 06:09:59;;;;;;;12.60;1.65;;;5.50;99.90;;;;;;5024525;28;20124;-71
2024/02/07 06:12:25;;;;;;;10.10;1.90;;;5.50;99.90;;;;;;5005296;28;20457;-71
2024/02/07 06:14:52;;;;;;;13.68;1.90;;;5.50;99.90;;;;;;5019535;28;20025;-71
2024/02/07 06:17:17;;;;;;;12.65;1.65;;;5.50;99.90;;;;;;5020738;28;20112;-70
2024/02/07 06:19:43;;;;;;;11.43;1.55;;;5.50;99.90;;;;;;5024667;28;20066;-69
2024/02/07 06:22:10;;;;;;;9.98;1.45;;;5.50;99.90;;;;;;5005383;28;20245;-70
2024/02/07 06:24:35;;;;;;;9.60;1.25;;;5.50;99.90;;;;;;5017022;28;20804;-71
2024/02/07 06:27:01;;;;;;;13.52;1.80;;;5.60;99.90;;;;;;5021426;28;20029;-69
2024/02/07 06:29:26;;;;;;;7.80;1.35;;;5.60;99.90;;;;;;5022765;28;20505;-71
2024/02/07 06:31:54;;;;;;;5.25;1.40;;;5.50;99.90;;;;;;5026244;28;21096;-70
2024/02/07 06:34:20;;;;;;;9.90;2.33;;;5.50;99.90;;;;;;5028080;28;20065;-68
2024/02/07 06:36:46;;;;;;;17.17;2.22;;;5.50;99.90;;;;;;5025002;28;20283;-69
2024/02/07 06:39:12;;;;;;;13.93;2.35;;;5.50;99.90;;;;;;5025026;28;20029;-68
2024/02/07 06:41:37;;;;;;;10.35;1.73;;;5.50;99.90;;;;;;5009579;28;20017;-69
2024/02/07 06:44:03;;;;;;;17.73;2.00;;;5.50;99.90;;;;;;5022526;28;20104;-68
2024/02/07 06:46:29;;;;;;;10.57;1.88;;;5.50;99.90;;;;;;5023159;28;20425;-69
2024/02/07 06:48:55;;;;;;;17.70;1.80;;;5.60;99.90;;;;;;5029429;28;19940;-69
2024/02/07 06:51:20;;;;;;;16.08;1.85;;;5.60;99.90;;;;;;5031598;28;20048;-72
2024/02/07 06:53:46;;;;;;;6.65;1.60;;;5.60;99.90;;;;;;5024839;28;20060;-67
2024/02/07 06:56:12;;;;;;;13.52;1.77;;;5.60;99.90;;;;;;5024014;28;20109;-69
2024/02/07 06:58:37;;;;;;;15.35;2.30;;;5.60;99.90;;;;;;5026045;28;20084;-69
2024/02/07 07:01:03;;;;;;;6.47;1.63;;;5.70;99.90;;;;;;5023736;28;20473;-78
2024/02/07 07:03:30;;;;;;;9.80;1.35;;;5.70;99.90;;;;;;5022586;28;20029;-70
2024/02/07 07:05:57;;;;;;;16.50;1.70;;;5.70;99.90;;;;;;5014674;28;20081;-70
2024/02/07 07:08:23;;;;;;;11.80;2.10;;;5.70;99.90;;;;;;5013387;28;20644;-68
2024/02/07 07:10:48;;;;;;;15.18;2.30;;;5.70;99.90;;;;;;5023635;28;20152;-73
2024/02/07 07:13:14;;;;;;;12.98;2.15;;;5.70;99.90;;;;;;5026479;28;20044;-69
2024/02/07 07:15:40;;;;;;;10.00;1.55;;;5.70;99.90;;;;;;5033598;28;20555;-70
2024/02/07 07:18:05;;;;;;;14.77;2.22;;;5.70;99.90;;;;;;5032851;28;20075;-70
2024/02/07 07:20:31;;;;;;;10.68;1.75;;;5.70;99.90;;;;;;5036143;28;20063;-72
2024/02/07 07:23:00;;;;;;;15.30;1.73;;;5.80;99.90;;;;;;5033753;28;20029;-71
2024/02/07 07:25:26;;;;;;;20.85;2.60;;;5.70;99.90;;;;;;5035207;28;20029;-71
2024/02/07 07:27:52;;;;;;;11.80;2.05;;;5.70;99.90;;;;;;5034587;28;20036;-69
2024/02/07 07:30:18;;;;;;;16.73;2.20;;;5.80;99.90;;;;;;5039918;28;20017;-67
2024/02/07 07:32:43;;;;;;;15.15;2.35;;;5.80;99.90;;;;;;5009260;28;20036;-73
2024/02/07 07:35:09;;;;;;;10.55;2.00;;;5.80;99.90;;;;;;5036842;28;20101;-70
2024/02/07 07:37:35;;;;;;;23.00;2.88;;;5.80;99.90;;;;;;5031401;28;20702;-68
2024/02/07 07:40:01;;;;;;;9.05;2.30;;;5.80;99.90;;;;;;5028240;28;20029;-72
2024/02/07 07:42:27;;;;;;;14.98;2.42;;;5.80;99.90;;;;;;5028037;28;20033;-72
2024/02/07 07:44:53;;;;;;;13.00;2.83;;;5.80;99.90;;;;;;5010526;28;20460;-70
2024/02/07 07:47:19;;;;;;;18.55;2.13;;;5.90;99.90;;;;;;5024009;28;20044;-70
2024/02/07 07:49:44;;;;;;;13.65;2.67;;;5.90;99.90;;;;;;5020948;28;20525;-68
2024/02/07 07:52:10;;;;;;;15.73;2.35;;;5.90;99.90;;;;;;5016256;28;20025;-75
2024/02/07 07:54:37;;;;;;;8.07;1.83;;;5.90;99.90;;;;;;5033331;28;20033;-70
2024/02/07 07:57:04;;;;;;;20.35;2.85;;;5.90;99.90;;;;;;5030607;28;20033;-72
2024/02/07 07:59:31;;;;;;;17.50;1.95;;;5.90;99.90;;;;;;5029953;28;20051;-70
2024/02/07 08:02:00;;;;;;;14.57;2.60;;;6.00;99.90;;;;;;5026849;28;20725;-70
2024/02/07 08:04:27;;;;;;;15.50;2.78;;;6.00;99.90;;;;;;5028033;28;20051;-68
2024/02/07 08:06:53;;;;;;;9.48;2.33;;;6.00;99.90;;;;;;5028036;28;20060;-68
2024/02/07 08:09:19;;;;;;;21.23;3.03;;;6.00;99.90;;;;;;5027778;28;20100;-71
2024/02/07 08:11:45;;;;;;;16.42;3.17;;;6.00;99.90;;;;;;5028314;28;19913;-70
2024/02/07 08:14:11;;;;;;;17.58;3.00;;;6.00;99.90;;;;;;5030174;28;20033;-70
2024/02/07 08:16:37;;;;;;;14.30;3.00;;;6.00;99.90;;;;;;5027967;28;20029;-74
2024/02/07 08:19:03;;;;;;;13.55;2.75;;;6.00;99.90;;;;;;5029808;28;20025;-69
2024/02/07 08:21:30;;;;;;;14.05;3.03;;;6.10;99.90;;;;;;5008870;28;20037;-67
2024/02/07 08:23:56;;;;;;;18.73;2.83;;;6.00;99.90;;;;;;5014772;28;20111;-71
2024/02/07 08:26:23;;;;;;;15.57;2.17;;;6.00;99.90;;;;;;5027766;28;20060;-68
2024/02/07 08:28:49;;;;;;;9.32;2.25;;;6.00;99.90;;;;;;5028103;28;20421;-69
2024/02/07 08:31:16;;;;;;;9.02;2.53;;;6.00;99.90;;;;;;5030612;28;20024;-71
2024/02/07 08:33:42;;;;;;;19.25;2.20;;;6.00;99.90;;;;;;5035758;28;20084;-70
2024/02/07 08:36:08;;;;;;;13.65;2.78;;;6.00;99.90;;;;;;5027082;28;20427;-71
2024/02/07 08:38:33;;;;;;;13.20;2.58;;;6.00;99.90;;;;;;5011528;28;20045;-71
2024/02/07 08:40:59;;;;;;;14.95;2.35;;;5.90;99.90;;;;;;5035685;28;20103;-69
2024/02/07 08:43:25;;;;;;;11.98;2.58;;;6.00;99.90;;;;;;5030774;28;20029;-70
2024/02/07 08:45:52;;;;;;;14.10;2.20;;;6.00;99.90;;;;;;5026674;28;20068;-70
2024/02/07 08:48:17;;;;;;;10.82;2.50;;;6.00;99.90;;;;;;5027324;28;19932;-71
2024/02/07 08:50:43;;;;;;;14.30;2.40;;;6.00;99.90;;;;;;5025334;28;20021;-71
2024/02/07 08:53:10;;;;;;;8.00;1.90;;;6.00;99.90;;;;;;5012899;28;20021;-69
2024/02/07 08:55:36;;;;;;;14.27;2.67;;;6.00;99.90;;;;;;5027470;28;20026;-72
2024/02/07 08:58:01;;;;;;;18.17;2.30;;;6.00;99.90;;;;;;5034871;28;20125;-68
2024/02/07 09:00:27;;;;;;;18.45;3.03;;;6.10;99.90;;;;;;5026982;28;20025;-68
2024/02/07 09:02:54;;;;;;;19.23;2.35;;;6.10;99.90;;;;;;5030992;28;20160;-69
2024/02/07 09:05:20;;;;;;;16.47;3.57;;;6.10;99.90;;;;;;5033545;28;20048;-71
2024/02/07 09:07:46;;;;;;;22.83;2.92;;;6.20;99.90;;;;;;5032767;28;20438;-67
2024/02/07 09:10:12;;;;;;;23.55;2.53;;;6.20;99.90;;;;;;5030454;28;20070;-68
2024/02/07 09:12:38;;;;;;;11.30;2.05;;;6.20;99.90;;;;;;5038242;28;20032;-70
2024/02/07 09:15:04;;;;;;;16.48;2.15;;;6.30;99.90;;;;;;5029993;28;20029;-73
2024/02/07 09:17:33;;;;;;;19.52;2.13;;;6.30;99.90;;;;;;5037070;28;20057;-72
2024/02/07 09:20:00;;;;;;;18.00;3.15;;;6.30;99.90;;;;;;5028625;28;20057;-70
2024/02/07 09:22:25;;;;;;;18.00;2.50;;;6.40;99.90;;;;;;5011413;28;20092;-68
2024/02/07 09:24:51;;;;;;;15.93;2.58;;;6.40;99.90;;;;;;5031821;28;20749;-70
2024/02/07 09:27:18;;;;;;;15.77;3.60;;;6.50;99.90;;;;;;5034261;28;20063;-70
2024/02/07 09:29:44;;;;;;;20.52;2.83;;;6.50;99.90;;;;;;5017694;28;20033;-71
2024/02/07 09:32:09;;;;;;;14.20;2.17;;;6.50;99.90;;;;;;5033916;28;20034;-68
2024/02/07 09:34:35;;;;;;;15.70;2.30;;;6.50;99.90;;;;;;5034974;28;20029;-68
2024/02/07 09:37:01;;;;;;;20.17;2.70;;;6.60;99.90;;;;;;5030874;28;20032;-69
2024/02/07 09:39:27;;;;;;;22.92;3.05;;;6.60;99.90;;;;;;5033159;28;20051;-70
2024/02/07 09:41:56;;;;;;;21.88;2.60;;;6.60;99.90;;;;;;5037735;28;20032;-67
2024/02/07 09:44:25;;;;;;;13.88;2.53;;;6.60;99.90;;;;;;5034714;28;20897;-71
2024/02/07 09:46:53;;;;;;;18.60;2.72;;;6.70;99.90;;;;;;5026656;28;20034;-68
2024/02/07 09:49:24;;;;;;;11.95;2.60;;;6.70;99.90;;;;;;5025432;28;20034;-69
2024/02/07 09:51:50;;;;;;;17.73;2.70;;;6.80;99.90;;;;;;5027497;28;20038;-70
2024/02/07 09:54:18;;;;;;;13.40;2.13;;;6.80;99.90;;;;;;5026244;28;19925;-67
2024/02/07 09:56:45;;;;;;;20.50;3.08;;;6.80;99.90;;;;;;5030294;28;20103;-70
2024/02/07 09:59:12;;;;;;;15.75;2.72;;;6.80;99.90;;;;;;5034313;28;20028;-72
2024/02/07 10:01:39;;;;;;;19.58;2.90;;;6.80;99.90;;;;;;5030341;28;20109;-71
2024/02/07 10:04:24;;;;;;;28.85;3.05;;;6.80;99.90;;;;;;5034199;28;20485;-72
2024/02/07 10:06:50;;;;;;;19.60;2.42;;;6.80;99.90;;;;;;5028239;28;20512;-69
2024/02/07 10:09:17;;;;;;;19.13;2.85;;;6.80;99.90;;;;;;5037074;28;20024;-71
2024/02/07 10:11:43;;;;;;;14.30;2.22;;;6.90;99.90;;;;;;5035273;28;20037;-70
2024/02/07 10:14:10;;;;;;;17.30;3.20;;;6.90;99.90;;;;;;5038672;28;20025;-71
2024/02/07 10:16:35;;;;;;;14.43;2.53;;;7.00;99.90;;;;;;5036843;28;20029;-67
2024/02/07 10:19:01;;;;;;;24.85;2.90;;;7.00;99.90;;;;;;5013433;28;20025;-71
2024/02/07 10:21:34;;;;;;;18.88;2.58;;;7.00;99.90;;;;;;5036715;28;20031;-68
2024/02/07 10:24:00;;;;;;;17.17;3.08;;;7.00;99.90;;;;;;5026943;28;20033;-70
2024/02/07 10:26:26;;;;;;;12.80;1.60;;;7.00;99.90;;;;;;5033768;28;20032;-69
2024/02/07 10:29:04;;;;;;;14.88;3.58;;;7.10;99.90;;;;;;5031821;28;20064;-70
2024/02/07 10:31:30;;;;;;;17.33;2.92;;;7.10;99.90;;;;;;5035753;28;20524;-68
2024/02/07 10:33:58;;;;;;;22.48;2.28;;;7.10;99.90;;;;;;5028704;28;20042;-69
2024/02/07 10:36:24;;;;;;;13.65;2.15;;;7.20;99.90;;;;;;5034156;28;20843;-69
2024/02/07 10:38:52;;;;;;;17.90;2.85;;;7.20;99.90;;;;;;5032912;28;20029;-68
2024/02/07 10:41:17;;;;;;;14.75;2.45;;;7.20;99.90;;;;;;5018848;28;20045;-68
2024/02/07 10:43:43;;;;;;;20.95;2.20;;;7.10;99.90;;;;;;5049777;28;20049;-72
2024/02/07 10:46:13;;;;;;;12.15;2.30;;;7.10;99.90;;;;;;5028697;28;20101;-70
2024/02/07 10:48:39;;;;;;;23.73;2.55;;;7.00;99.90;;;;;;5028745;28;20497;-73
2024/02/07 10:51:05;;;;;;;22.00;2.25;;;7.10;99.90;;;;;;5028533;28;20036;-72
2024/02/07 10:53:32;;;;;;;16.80;2.42;;;7.00;99.90;;;;;;5032588;28;20128;-71
2024/02/07 10:55:59;;;;;;;18.00;2.30;;;6.90;99.90;;;;;;5029558;28;20033;-69
2024/02/07 10:58:27;;;;;;;18.55;2.33;;;7.00;99.90;;;;;;5029487;28;20744;-69
2024/02/07 11:00:54;;;;;;;16.17;2.47;;;7.00;99.90;;;;;;5015719;28;20514;-67
2024/02/07 11:03:26;;;;;;;23.33;3.03;;;7.00;99.90;;;;;;5018527;28;20040;-67
2024/02/07 11:05:51;;;;;;;19.33;2.70;;;7.00;99.90;;;;;;5031159;28;20041;-69
2024/02/07 11:08:17;;;;;;;18.88;3.25;;;7.00;99.90;;;;;;5029893;28;20075;-71
2024/02/07 11:10:44;;;;;;;29.10;3.30;;;7.10;99.90;;;;;;5029337;28;20493;-73
2024/02/07 11:13:10;;;;;;;26.80;2.80;;;7.20;99.90;;;;;;5025268;28;20029;-71
2024/02/07 11:15:37;;;;;;;20.65;2.65;;;7.10;99.90;;;;;;5022133;28;20072;-75
2024/02/07 11:18:05;;;;;;;24.58;2.75;;;7.20;99.90;;;;;;5027764;28;20143;-74
2024/02/07 11:20:31;;;;;;;17.88;3.75;;;7.20;99.90;;;;;;5025061;28;20829;-73
2024/02/07 11:23:00;;;;;;;16.05;2.72;;;7.00;99.90;;;;;;5028105;28;20041;-72
2024/02/07 11:25:26;;;;;;;19.90;3.22;;;7.00;99.90;;;;;;5034920;28;20035;-73
2024/02/07 11:27:53;;;;;;;13.50;2.35;;;7.10;99.90;;;;;;5013706;28;20746;-72
2024/02/07 11:30:20;;;;;;;22.58;2.45;;;7.10;99.90;;;;;;5034663;28;20108;-74
2024/02/07 11:32:51;;;;;;;22.58;2.78;;;7.10;99.90;;;;;;5035796;28;20385;-72
2024/02/07 11:35:21;;;;;;;19.42;2.15;;;7.10;99.90;;;;;;5024898;28;20127;-73
2024/02/07 11:37:51;;;;;;;12.07;2.47;;;7.10;99.90;;;;;;5028963;28;20489;-74
2024/02/07 11:40:18;;;;;;;14.15;1.63;;;7.10;99.90;;;;;;5031278;28;20029;-73
2024/02/07 11:42:44;;;;;;;10.47;2.43;;;7.00;99.90;;;;;;5033233;28;20036;-72
2024/02/07 11:45:13;;;;;;;12.43;2.63;;;7.10;99.90;;;;;;5027534;28;20025;-73
2024/02/07 11:47:42;;;;;;;7.97;1.73;;;7.10;99.90;;;;;;5035644;28;20521;-73
2024/02/07 11:50:16;;;;;;;19.20;1.92;;;7.10;99.90;;;;;;5026724;28;20680;-72
2024/02/07 11:52:43;;;;;;;16.40;2.92;;;7.10;99.90;;;;;;5027857;28;20140;-69
2024/02/07 11:55:11;;;;;;;18.17;2.95;;;7.00;99.90;;;;;;5027712;28;20466;-70
2024/02/07 11:57:50;;;;;;;18.27;2.72;;;7.00;99.90;;;;;;5032931;28;20033;-70
2024/02/07 12:00:18;;;;;;;22.92;3.08;;;7.00;99.90;;;;;;5025269;28;20482;-71
2024/02/07 12:02:52;;;;;;;13.25;2.60;;;7.10;99.90;;;;;;5011396;28;20025;-70
2024/02/07 12:05:19;;;;;;;21.58;2.47;;;7.10;99.90;;;;;;5030176;28;20033;-72
2024/02/07 12:07:48;;;;;;;19.65;2.50;;;7.20;99.90;;;;;;5011712;28;20408;-71
2024/02/07 12:10:14;;;;;;;14.02;2.42;;;7.20;99.90;;;;;;5012394;28;20025;-71
2024/02/07 12:12:39;;;;;;;14.35;1.80;;;7.30;99.90;;;;;;5027486;28;20083;-70
2024/02/07 12:15:05;;;;;;;15.90;2.03;;;7.30;99.90;;;;;;5011304;28;20635;-70
2024/02/07 12:17:33;;;;;;;13.32;2.17;;;7.40;99.90;;;;;;5029253;28;20091;-71
2024/02/07 12:20:00;;;;;;;17.35;1.50;;;7.40;99.90;;;;;;5028016;28;20034;-71
2024/02/07 12:22:27;;;;;;;21.88;2.33;;;7.50;99.90;;;;;;5018318;28;20029;-70
2024/02/07 12:24:56;;;;;;;13.63;1.80;;;7.50;99.90;;;;;;5012242;28;20077;-73
2024/02/07 12:27:22;;;;;;;17.35;1.70;;;7.60;99.90;;;;;;5030181;28;20049;-74
2024/02/07 12:29:51;;;;;;;17.73;1.83;;;7.60;99.90;;;;;;5024615;28;20038;-72
2024/02/07 12:32:18;;;;;;;13.10;1.88;;;7.60;99.90;;;;;;5020837;28;20025;-74
2024/02/07 12:34:45;;;;;;;8.98;1.85;;;7.70;99.90;;;;;;5032060;28;20092;-77
2024/02/07 12:37:15;;;;;;;19.30;1.98;;;7.80;99.90;;;;;;5024710;28;20555;-73
2024/02/07 12:39:47;;;;;;;15.18;2.45;;;7.70;99.90;;;;;;5027055;28;20024;-73
2024/02/07 12:42:14;;;;;;;16.58;2.00;;;7.70;99.90;;;;;;5031269;28;20025;-72
2024/02/07 12:44:40;;;;;;;10.10;1.30;;;7.70;99.90;;;;;;5008182;28;20548;-74
2024/02/07 12:47:11;;;;;;;15.23;1.70;;;7.80;99.90;;;;;;5026825;28;20093;-75
2024/02/07 12:49:37;;;;;;;20.65;1.80;;;7.80;99.90;;;;;;5023674;28;20041;-72
2024/02/07 12:52:03;;;;;;;12.80;1.60;;;7.90;99.90;;;;;;5031803;28;20021;-73
2024/02/07 12:54:29;;;;;;;13.90;1.85;;;8.00;99.90;;;;;;5027253;28;20087;-73
2024/02/07 12:56:56;;;;;;;12.65;1.98;;;8.00;99.90;;;;;;5015673;28;20065;-74
2024/02/07 12:59:35;;;;;;;15.50;1.60;;;8.10;99.90;;;;;;5017910;28;20072;-74
2024/02/07 13:02:11;;;;;;;18.30;2.67;;;8.10;99.90;;;;;;5029598;28;20609;-73
2024/02/07 13:04:37;;;;;;;13.70;1.70;;;8.20;99.90;;;;;;5007161;28;20583;-74
2024/02/07 13:07:09;;;;;;;22.15;2.35;;;8.40;99.90;;;;;;5033285;28;20029;-73
2024/02/07 13:09:35;;;;;;;11.07;1.45;;;8.40;99.90;;;;;;5030762;28;20076;-73
2024/02/07 13:12:01;;;;;;;15.45;1.75;;;8.50;99.90;;;;;;5027007;28;20060;-74
2024/02/07 13:14:27;;;;;;;18.27;2.45;;;8.60;99.90;;;;;;5022998;28;20037;-72
2024/02/07 13:16:53;;;;;;;10.02;1.58;;;8.60;99.90;;;;;;5031645;28;20030;-73
2024/02/07 13:19:19;;;;;;;10.48;1.70;;;8.50;99.90;;;;;;5025178;28;20031;-74
2024/02/07 13:21:45;;;;;;;10.13;1.48;;;8.50;99.90;;;;;;5027572;28;20033;-73
2024/02/07 13:24:17;;;;;;;11.35;1.50;;;8.40;99.90;;;;;;5025470;28;20027;-74
2024/02/07 13:26:44;;;;;;;12.90;1.83;;;8.50;99.90;;;;;;5027384;28;20072;-75
2024/02/07 13:29:10;;;;;;;16.08;2.05;;;8.50;99.90;;;;;;5016045;28;20025;-74
2024/02/07 13:31:37;;;;;;;10.23;1.90;;;8.60;99.90;;;;;;5033327;28;20032;-73
2024/02/07 13:34:04;;;;;;;22.27;1.80;;;8.80;99.90;;;;;;5034047;28;20044;-74
2024/02/07 13:36:30;;;;;;;9.77;1.63;;;9.00;99.90;;;;;;5010507;28;20071;-73
2024/02/07 13:38:56;;;;;;;18.98;1.63;;;9.10;99.90;;;;;;5015027;28;20116;-74
2024/02/07 13:41:22;;;;;;;9.57;2.20;;;9.40;99.90;;;;;;5035560;28;20631;-75
2024/02/07 13:43:48;;;;;;;12.50;1.77;;;9.60;99.50;;;;;;5036239;28;20044;-73
2024/02/07 13:46:13;;;;;;;13.13;1.73;;;9.80;99.90;;;;;;5037813;28;20102;-74
2024/02/07 13:48:39;;;;;;;8.48;1.48;;;10.00;99.20;;;;;;5019790;28;20030;-72
2024/02/07 13:51:09;;;;;;;9.02;1.58;;;10.00;98.40;;;;;;5028594;28;20025;-73
2024/02/07 13:53:35;;;;;;;15.50;1.83;;;9.80;97.40;;;;;;5034589;28;20112;-73
2024/02/07 13:56:04;;;;;;;14.00;2.40;;;9.70;97.00;;;;;;5040556;28;20552;-73